Palo, IA (52324)

3:20 PM CST on December 21, 2014 (GMT -0600)
Oak Valley - Deer View Rd | Change Station
CLOSE
Current Station
Personal Weather Station
Location: Cedar Rapids, IA
Elevation: 860 ft
Nearby Weather Stations

Elev 860 ft 42.04 °N, 91.73 °W | Updated 0 second ago

Overcast
Overcast
40.3 °F
Feels Like 37 °F
N
5.4
Wind Variable Wind from SE
Gusts 7.0 mph

Today
High -- | Low -- °F
--% Chance of Precip.
Yesterday
High -- | Low -- °F
Precip. -- in
7:32 AM 4:38 PM
Waning Crescent, 0% visible
Pressure 29.89 in
Visibility 8.0 miles
Clouds Mostly Cloudy 1400 ft
Overcast 3000 ft
Windchill 37 °F
Dew Point 37 °F
Humidity 88%
Rainfall 0.00 in
Snow Depth Not available.
UV 0 out of 12
Pollen .10 out of 12
Air Quality Not available.
Flu Activity Not available.
METAR KCID 212052Z 16014G19KT 8SM BKN014 OVC030 04/02 A2989

More Conditions Fewer Conditions

Pressure 29.89 in
Visibility 8.0 miles
Clouds Mostly Cloudy 1400 ft
Overcast 3000 ft
Windchill 37 °F
Dew Point 37 °F
Humidity 88%
Rainfall 0.00 in
Snow Depth Not available.
UV 0 out of 12
Pollen .10 out of 12
Air Quality Not available.
Flu Activity Not available.
METAR KCID 212052Z 16014G19KT 8SM BKN014 OVC030 04/02 A2989

More Conditions Fewer Conditions

10-Day Weather Forecast

Almanac

Astronomy

Dec. 21, 2014 Rise Set
Actual Time
Civil Twilight
Nautical Twilight
Astronomical Twilight
Moon
Length of Visible Light
Length of Day
Tomorrow will be .
, % of the Moon is Illuminated

Today's Extremes

State Highs State Lows

Community

WunderPhotos

Upload Photos

1,779,482 photos uploaded!

WunderBlogs® & News

Nearby

Air Quality

  Air Quality AQ Index Pollutant
Not available.

Snow Depth

Station Depth Elevation

Earthquake Activity

City Distance Mag. Time & Date
Minimum magnitude displayed is 2.5.

Coastal Water Temperatures

Place Temperature

Nearby Weather Stations